Time;durP1;ratioP1;P1;durP2;ratioP2;P2;SDS_P1;SDS_P2;PMS_P1;PMS_P2;Temp;Humidity;BMP_temperature;BMP_pressure;BME280_temperature;BME280_humidity;BME280_pressure;Samples;Min_cycle;Max_cycle;Signal;HPM_P1;HPM_P2
2022/11/22 00:00:53;;;;;;;10.60;7.50;;;;;;;4.59;100.00;92578.78;5069619;28;20104;-71
2022/11/22 00:03:23;;;;;;;13.40;7.97;;;;;;;4.58;100.00;92586.59;5069405;28;20048;-70
2022/11/22 00:05:49;;;;;;;9.43;7.18;;;;;;;4.55;100.00;92582.66;5069420;28;20048;-71
2022/11/22 00:08:16;;;;;;;9.30;6.65;;;;;;;4.53;100.00;92569.34;5069126;28;20110;-70
2022/11/22 00:10:44;;;;;;;8.25;6.28;;;;;;;4.50;100.00;92582.44;5069164;28;20044;-70
2022/11/22 00:13:11;;;;;;;6.85;5.07;;;;;;;4.37;100.00;92561.06;5069167;28;20193;-71
2022/11/22 00:15:37;;;;;;;6.38;4.68;;;;;;;4.40;100.00;92567.53;5069131;28;20048;-70
2022/11/22 00:18:04;;;;;;;5.18;4.20;;;;;;;4.39;100.00;92571.03;5069267;28;20106;-70
2022/11/22 00:20:31;;;;;;;5.68;4.43;;;;;;;4.30;100.00;92565.31;5069042;28;20413;-71
2022/11/22 00:22:58;;;;;;;4.97;4.10;;;;;;;4.25;100.00;92565.88;5068456;28;20044;-71
2022/11/22 00:25:24;;;;;;;5.85;4.40;;;;;;;4.22;100.00;92563.69;5068980;28;20074;-70
2022/11/22 00:27:53;;;;;;;5.38;4.40;;;;;;;4.16;100.00;92554.28;5069154;28;20113;-70
2022/11/22 00:30:20;;;;;;;6.63;4.57;;;;;;;4.13;100.00;92559.75;5068765;28;20044;-70
2022/11/22 00:32:47;;;;;;;7.30;5.78;;;;;;;4.13;100.00;92568.13;5069330;28;20052;-71
2022/11/22 00:35:14;;;;;;;6.25;5.05;;;;;;;4.10;100.00;92560.09;5068236;28;20080;-70
2022/11/22 00:37:41;;;;;;;6.90;5.03;;;;;;;4.07;100.00;92563.03;5069428;28;20049;-70
2022/11/22 00:40:09;;;;;;;7.75;5.85;;;;;;;4.05;100.00;92564.97;5068929;28;20075;-70
2022/11/22 00:42:36;;;;;;;9.63;6.43;;;;;;;4.01;100.00;92582.34;5068739;28;20110;-70
2022/11/22 00:45:04;;;;;;;10.35;7.25;;;;;;;3.99;100.00;92577.44;5067175;28;20088;-70
2022/11/22 00:47:31;;;;;;;11.48;8.10;;;;;;;3.92;100.00;92580.88;5067447;28;20086;-70
2022/11/22 00:49:58;;;;;;;8.80;6.40;;;;;;;3.80;100.00;92576.31;5068378;28;20447;-70
2022/11/22 00:52:24;;;;;;;6.95;5.20;;;;;;;3.75;100.00;92581.16;5068922;28;20044;-70
2022/11/22 00:54:51;;;;;;;7.85;4.90;;;;;;;3.66;100.00;92579.72;5070550;28;20070;-70
2022/11/22 00:57:18;;;;;;;6.63;4.90;;;;;;;3.55;100.00;92581.00;5068183;28;20060;-70
2022/11/22 00:59:44;;;;;;;7.72;5.97;;;;;;;3.43;100.00;92565.47;5068977;28;20102;-70
2022/11/22 01:02:12;;;;;;;9.52;6.28;;;;;;;3.46;100.00;92570.97;5068834;28;20044;-69
2022/11/22 01:04:39;;;;;;;9.05;6.95;;;;;;;3.43;100.00;92566.25;5068476;28;20538;-69
2022/11/22 01:07:06;;;;;;;9.70;6.97;;;;;;;3.38;100.00;92568.53;5068844;28;20499;-69
2022/11/22 01:09:32;;;;;;;8.90;6.53;;;;;;;3.38;100.00;92562.69;5068894;28;20073;-69
2022/11/22 01:11:59;;;;;;;7.72;5.97;;;;;;;3.34;100.00;92560.50;5068252;28;20049;-69
2022/11/22 01:14:26;;;;;;;7.32;5.25;;;;;;;3.36;100.00;92562.06;5068869;28;20126;-69
2022/11/22 01:16:52;;;;;;;5.28;4.22;;;;;;;3.34;100.00;92563.03;5068510;28;20486;-69
2022/11/22 01:19:20;;;;;;;6.00;4.93;;;;;;;3.34;100.00;92564.81;5068056;28;20053;-69
2022/11/22 01:21:47;;;;;;;5.53;4.43;;;;;;;3.28;100.00;92565.53;5068521;28;20090;-69
2022/11/22 01:24:14;;;;;;;6.13;4.38;;;;;;;3.25;100.00;92559.06;5068393;28;20084;-69
2022/11/22 01:26:40;;;;;;;5.95;5.00;;;;;;;3.19;100.00;92555.47;5068193;28;20052;-69
2022/11/22 01:29:07;;;;;;;6.18;4.47;;;;;;;3.17;100.00;92552.34;5068624;28;20418;-69
2022/11/22 01:31:34;;;;;;;5.80;4.72;;;;;;;3.13;100.00;92568.09;5068617;28;20080;-69
2022/11/22 01:34:00;;;;;;;7.78;5.63;;;;;;;3.08;100.00;92561.03;5068146;28;20464;-70
2022/11/22 01:36:29;;;;;;;8.85;6.60;;;;;;;3.05;100.00;92567.25;5068338;28;20510;-70
2022/11/22 01:38:55;;;;;;;9.43;7.03;;;;;;;2.97;100.00;92554.69;5068005;28;20098;-70
2022/11/22 01:41:23;;;;;;;10.77;6.80;;;;;;;2.96;100.00;92562.47;5068118;28;20045;-70
2022/11/22 01:43:50;;;;;;;10.60;7.25;;;;;;;2.91;100.00;92557.91;5068592;28;20098;-70
2022/11/22 01:46:27;;;;;;;9.32;5.85;;;;;;;2.89;100.00;92557.31;5069188;28;20121;-70
2022/11/22 01:49:00;;;;;;;6.90;5.20;;;;;;;2.88;100.00;92560.81;5071771;28;20094;-69
2022/11/22 01:51:32;;;;;;;7.25;5.57;;;;;;;2.84;100.00;92560.41;5071941;28;20044;-69
2022/11/22 01:54:02;;;;;;;8.32;5.82;;;;;;;2.79;100.00;92562.69;5073446;28;20052;-69
2022/11/22 01:56:30;;;;;;;6.75;4.90;;;;;;;2.76;100.00;92557.94;5071756;28;20044;-70
2022/11/22 01:59:00;;;;;;;5.55;4.82;;;;;;;2.63;100.00;92533.22;5071379;28;20410;-69
2022/11/22 02:01:28;;;;;;;8.32;5.50;;;;;;;2.66;100.00;92551.44;5071463;28;20048;-69
2022/11/22 02:03:58;;;;;;;6.00;5.22;;;;;;;2.67;100.00;92557.25;5071441;28;20053;-70
2022/11/22 02:06:32;;;;;;;6.90;5.25;;;;;;;2.62;100.00;92549.41;5071831;28;20409;-69
2022/11/22 02:09:05;;;;;;;7.03;5.45;;;;;;;2.48;100.00;92544.19;5071524;28;20045;-70
2022/11/22 02:11:35;;;;;;;7.70;5.80;;;;;;;2.31;100.00;92528.38;5071486;28;20406;-70
2022/11/22 02:14:03;;;;;;;7.55;5.07;;;;;;;2.50;100.00;92552.38;5071621;28;20044;-70
2022/11/22 02:16:30;;;;;;;7.20;5.57;;;;;;;2.46;100.00;92548.63;5071609;28;20382;-70
2022/11/22 02:18:57;;;;;;;7.80;5.70;;;;;;;2.43;100.00;92546.47;5071271;28;20455;-70
2022/11/22 02:21:24;;;;;;;7.28;5.85;;;;;;;2.38;100.00;92549.53;5071527;28;20056;-70
2022/11/22 02:23:56;;;;;;;9.52;6.25;;;;;;;2.38;100.00;92551.28;5071366;28;20044;-69
2022/11/22 02:26:28;;;;;;;8.35;6.70;;;;;;;2.33;100.00;92553.53;5071675;28;20072;-69
2022/11/22 02:28:59;;;;;;;10.40;7.70;;;;;;;2.32;100.00;92549.44;5071224;28;20052;-69
2022/11/22 02:31:41;;;;;;;11.40;7.85;;;;;;;2.29;100.00;92542.97;5071162;28;20041;-69
2022/11/22 02:34:08;;;;;;;12.00;7.72;;;;;;;2.25;100.00;92539.19;5071465;28;20040;-69
2022/11/22 02:36:42;;;;;;;9.30;7.03;;;;;;;2.25;100.00;92537.47;5071365;28;20106;-69
2022/11/22 02:39:11;;;;;;;11.75;7.88;;;;;;;2.19;100.00;92538.16;5071282;28;20049;-69
2022/11/22 02:41:40;;;;;;;10.48;7.82;;;;;;;2.11;100.00;92538.25;5070731;28;20044;-69
2022/11/22 02:44:08;;;;;;;9.85;7.43;;;;;;;2.05;100.00;92538.94;5071226;28;20079;-69
2022/11/22 02:46:35;;;;;;;9.23;7.38;;;;;;;2.07;100.00;92532.75;5071063;28;20098;-69
2022/11/22 02:49:01;;;;;;;7.82;6.57;;;;;;;2.08;100.00;92526.72;5070829;28;20056;-69
2022/11/22 02:51:28;;;;;;;9.02;6.85;;;;;;;2.10;100.00;92541.75;5070661;28;20040;-69
2022/11/22 02:53:55;;;;;;;8.48;6.47;;;;;;;2.07;100.00;92539.53;5073098;28;20060;-69
2022/11/22 02:56:22;;;;;;;9.07;6.95;;;;;;;2.03;100.00;92535.81;5070391;28;20060;-69
2022/11/22 02:58:50;;;;;;;9.32;7.18;;;;;;;1.80;100.00;92506.28;5070768;28;20045;-69
2022/11/22 03:01:17;;;;;;;8.82;6.95;;;;;;;1.81;100.00;92526.34;5070327;28;20106;-69
2022/11/22 03:03:43;;;;;;;9.65;7.63;;;;;;;1.85;100.00;92524.25;5070814;28;20048;-69
2022/11/22 03:06:10;;;;;;;9.57;7.10;;;;;;;1.86;100.00;92529.13;5070753;28;20052;-69
2022/11/22 03:08:37;;;;;;;8.85;7.10;;;;;;;1.85;100.00;92526.78;5070250;28;20728;-70
2022/11/22 03:11:03;;;;;;;9.60;7.20;;;;;;;1.79;100.00;92524.94;5070102;28;20048;-69
2022/11/22 03:13:30;;;;;;;9.65;7.38;;;;;;;1.82;100.00;92524.59;5070377;28;20044;-69
2022/11/22 03:15:58;;;;;;;10.50;7.50;;;;;;;1.80;100.00;92514.63;5069995;28;20594;-69
2022/11/22 03:18:25;;;;;;;9.02;7.07;;;;;;;1.81;100.00;92525.56;5069723;28;20058;-70
2022/11/22 03:20:52;;;;;;;11.48;7.95;;;;;;;1.81;100.00;92528.88;5070154;28;20486;-69
2022/11/22 03:23:19;;;;;;;13.20;10.13;;;;;;;1.70;100.00;92525.03;5070211;28;20091;-70
2022/11/22 03:25:45;;;;;;;12.88;9.70;;;;;;;1.65;100.00;92534.88;5069948;28;20055;-70
2022/11/22 03:28:12;;;;;;;13.15;10.38;;;;;;;1.64;100.00;92533.31;5070318;28;20056;-70
2022/11/22 03:30:42;;;;;;;14.45;10.10;;;;;;;1.41;100.00;92498.69;5069698;28;20099;-70
2022/11/22 03:33:13;;;;;;;15.55;11.00;;;;;;;1.51;100.00;92521.22;5070279;28;20048;-70
2022/11/22 03:35:40;;;;;;;16.98;11.85;;;;;;;1.58;100.00;92528.94;5069971;28;20152;-70
2022/11/22 03:38:07;;;;;;;17.55;13.18;;;;;;;1.59;100.00;92527.97;5070127;28;20048;-69
2022/11/22 03:40:36;;;;;;;17.20;12.05;;;;;;;1.43;100.00;92498.53;5069810;28;20126;-69
2022/11/22 03:43:03;;;;;;;15.82;12.40;;;;;;;1.59;100.00;92526.22;5069949;28;20492;-69
2022/11/22 03:45:31;;;;;;;21.17;15.48;;;;;;;1.59;100.00;92531.28;5069713;28;20110;-69
2022/11/22 03:47:57;;;;;;;21.83;18.20;;;;;;;1.57;100.00;92519.78;5069700;28;20048;-70
2022/11/22 03:50:26;;;;;;;20.98;17.73;;;;;;;1.55;100.00;92529.25;5069769;28;20072;-69
2022/11/22 03:52:52;;;;;;;19.90;15.90;;;;;;;1.57;100.00;92520.53;5069547;28;20546;-70
2022/11/22 03:55:19;;;;;;;15.55;11.75;;;;;;;1.60;100.00;92527.81;5071721;28;20052;-69
2022/11/22 03:57:46;;;;;;;9.48;8.07;;;;;;;1.58;100.00;92532.22;5069365;28;20053;-69
2022/11/22 04:00:13;;;;;;;16.77;12.43;;;;;;;1.57;100.00;92538.25;5069624;28;20392;-69
2022/11/22 04:02:40;;;;;;;16.00;12.45;;;;;;;1.44;100.00;92538.84;5069321;28;20106;-69
2022/11/22 04:05:07;;;;;;;14.32;10.35;;;;;;;1.26;100.00;92534.09;5069258;28;20494;-69
2022/11/22 04:07:35;;;;;;;14.05;11.13;;;;;;;1.23;100.00;92542.00;5069703;28;20048;-69
2022/11/22 04:10:03;;;;;;;23.77;18.30;;;;;;;1.14;100.00;92540.47;5068656;28;20044;-69
2022/11/22 04:12:30;;;;;;;32.35;21.02;;;;;;;1.15;100.00;92552.19;5069567;28;20094;-69
2022/11/22 04:15:07;;;;;;;20.75;17.15;;;;;;;1.04;100.00;92540.69;5069427;28;20140;-69
2022/11/22 04:17:43;;;;;;;19.38;15.32;;;;;;;1.01;100.00;92544.34;5077679;28;20052;-70
2022/11/22 04:22:58;;;;;;;18.45;13.60;;;;;;;1.11;100.00;92538.28;5110173;28;20470;-70
2022/11/22 04:25:25;;;;;;;16.83;13.45;;;;;;;1.10;100.00;92537.50;5110056;28;20072;-69
2022/11/22 04:27:52;;;;;;;16.30;13.55;;;;;;;1.21;100.00;92548.97;5110139;28;20083;-69
2022/11/22 04:30:19;;;;;;;16.70;12.48;;;;;;;1.24;100.00;92540.28;5109776;28;20101;-69
2022/11/22 04:32:44;;;;;;;14.60;12.07;;;;;;;1.33;100.00;92545.09;5110024;28;20504;-69
2022/11/22 04:35:11;;;;;;;15.13;13.15;;;;;;;1.38;100.00;92547.09;5110036;28;20128;-69
2022/11/22 04:37:38;;;;;;;14.35;11.80;;;;;;;1.43;100.00;92547.38;5109967;28;20126;-69
2022/11/22 04:40:07;;;;;;;14.45;11.07;;;;;;;1.49;100.00;92548.47;5109895;28;20071;-69
2022/11/22 04:45:18;;;;;;;11.65;9.57;;;;;;;1.56;100.00;92563.75;5109819;28;20070;-69
2022/11/22 04:48:00;;;;;;;10.80;8.55;;;;;;;1.58;100.00;92561.84;5110232;28;20116;-69
2022/11/22 04:53:12;;;;;;;10.70;7.65;;;;;;;1.67;100.00;92567.63;5109845;28;20059;-70
2022/11/22 04:55:41;;;;;;;9.27;7.72;;;;;;;1.69;100.00;92574.09;5081295;28;20052;-70
2022/11/22 04:58:08;;;;;;;9.10;7.13;;;;;;;1.63;100.00;92571.44;5109653;28;20051;-69
2022/11/22 05:00:34;;;;;;;8.70;6.90;;;;;;;1.66;100.00;92589.59;5109761;28;20128;-71
2022/11/22 05:03:02;;;;;;;8.75;6.97;;;;;;;1.63;100.00;92591.69;5109627;28;20056;-70
2022/11/22 05:05:29;;;;;;;9.75;6.72;;;;;;;1.65;100.00;92593.09;5109884;28;20052;-70
2022/11/22 05:07:55;;;;;;;9.27;6.82;;;;;;;1.64;100.00;92591.53;5109475;28;20044;-69
2022/11/22 05:10:22;;;;;;;10.13;7.63;;;;;;;1.59;100.00;92581.91;5109340;28;20039;-69
2022/11/22 05:12:50;;;;;;;9.75;7.43;;;;;;;1.58;100.00;92592.22;5109693;28;20637;-69
2022/11/22 05:15:17;;;;;;;12.93;9.35;;;;;;;1.63;100.00;92592.50;5109478;28;20047;-69
2022/11/22 05:17:44;;;;;;;16.85;12.13;;;;;;;1.47;100.00;92595.91;5109809;28;20093;-69
2022/11/22 05:20:11;;;;;;;12.52;8.98;;;;;;;1.40;100.00;92595.81;5109487;28;20512;-69
2022/11/22 05:25:22;;;;;;;15.32;10.68;;;;;;;1.20;100.00;92601.31;5113731;28;20538;-69
2022/11/22 05:27:53;;;;;;;22.88;18.20;;;;;;;1.04;100.00;92588.75;5113795;28;20048;-70
2022/11/22 05:30:19;;;;;;;29.17;20.88;;;;;;;1.08;100.00;92591.72;5113056;28;20048;-70
2022/11/22 05:32:46;;;;;;;25.77;19.95;;;;;;;0.99;100.00;92594.31;5113711;28;20082;-69
2022/11/22 05:35:13;;;;;;;25.58;19.60;;;;;;;0.66;100.00;92586.88;5113649;28;20084;-69
2022/11/22 05:37:39;;;;;;;24.45;19.85;;;;;;;0.60;100.00;92585.78;5113355;28;20116;-69
2022/11/22 05:40:07;;;;;;;25.10;17.48;;;;;;;0.76;100.00;92586.69;5113462;28;20140;-70
2022/11/22 05:42:35;;;;;;;25.75;17.83;;;;;;;0.95;100.00;92588.00;5113267;28;20097;-70
2022/11/22 05:45:04;;;;;;;24.95;16.50;;;;;;;0.90;100.00;92597.84;5113425;28;20063;-70
2022/11/22 05:47:33;;;;;;;27.15;17.52;;;;;;;0.97;100.00;92598.75;5113471;28;20056;-70
2022/11/22 05:50:00;;;;;;;22.60;16.05;;;;;;;0.84;100.00;92594.25;5112745;28;20092;-69
2022/11/22 05:52:27;;;;;;;24.58;15.88;;;;;;;1.03;100.00;92589.72;5112994;28;20101;-69
2022/11/22 05:54:53;;;;;;;78.95;54.67;;;;;;;0.96;100.00;92589.59;5086742;28;20920;-69
2022/11/22 05:57:21;;;;;;;59.75;36.70;;;;;;;0.78;100.00;92589.81;5111087;28;20055;-70
2022/11/22 05:59:47;;;;;;;157.88;90.50;;;;;;;0.74;100.00;92589.38;5112884;28;20075;-71
2022/11/22 06:02:15;;;;;;;63.95;39.45;;;;;;;0.76;100.00;92587.47;5112755;28;20039;-71
2022/11/22 06:04:42;;;;;;;31.63;22.95;;;;;;;0.76;100.00;92581.63;5113417;28;20047;-70
2022/11/22 06:07:09;;;;;;;31.23;22.25;;;;;;;0.70;100.00;92582.28;5112234;27;20054;-70
2022/11/22 06:09:35;;;;;;;34.53;23.48;;;;;;;0.74;100.00;92583.53;5112872;28;20472;-70
2022/11/22 06:12:02;;;;;;;33.08;23.40;;;;;;;0.89;100.00;92576.03;5112851;28;20043;-70
2022/11/22 06:14:29;;;;;;;37.72;25.13;;;;;;;1.01;100.00;92576.44;5086533;28;20456;-70
2022/11/22 06:16:55;;;;;;;33.25;23.38;;;;;;;1.16;100.00;92571.47;5104654;28;20051;-70
2022/11/22 06:19:23;;;;;;;33.30;23.30;;;;;;;1.27;100.00;92578.66;5112352;28;20083;-70
2022/11/22 06:21:50;;;;;;;26.83;20.00;;;;;;;1.27;100.00;92577.88;5112545;28;20124;-70
2022/11/22 06:24:17;;;;;;;31.20;20.10;;;;;;;1.42;100.00;92586.31;5112239;28;20047;-70
2022/11/22 06:26:44;;;;;;;29.20;21.17;;;;;;;1.53;100.00;92582.59;5112674;28;20043;-70
2022/11/22 06:29:10;;;;;;;27.80;20.90;;;;;;;1.62;100.00;92585.06;5112312;28;20100;-70
2022/11/22 06:31:37;;;;;;;29.75;19.67;;;;;;;1.69;100.00;92591.81;5111911;28;20497;-70
2022/11/22 06:34:04;;;;;;;29.48;20.63;;;;;;;1.79;100.00;92599.16;5112298;28;20043;-70
2022/11/22 06:36:34;;;;;;;29.98;20.85;;;;;;;1.97;100.00;92606.47;5112062;28;20048;-71
2022/11/22 06:39:02;;;;;;;24.67;15.55;;;;;;;2.06;100.00;92609.72;5112251;28;20047;-71
2022/11/22 06:41:33;;;;;;;17.90;10.93;;;;;;;2.16;100.00;92604.38;5111977;28;20057;-71
2022/11/22 06:44:03;;;;;;;17.90;11.60;;;;;;;2.27;100.00;92610.78;5112243;28;20306;-71
2022/11/22 06:46:30;;;;;;;53.88;40.42;;;;;;;2.29;100.00;92598.72;5111869;28;20043;-71
2022/11/22 06:48:57;;;;;;;81.95;60.70;;;;;;;2.29;100.00;92605.53;5111672;28;20060;-71
2022/11/22 06:51:25;;;;;;;49.08;37.70;;;;;;;2.36;100.00;92597.06;5111867;28;20538;-71
2022/11/22 06:53:54;;;;;;;60.17;44.42;;;;;;;2.47;100.00;92592.50;5102488;28;20080;-71
2022/11/22 06:56:23;;;;;;;72.72;50.33;;;;;;;2.53;100.00;92582.47;5093502;28;20517;-70
2022/11/22 06:58:52;;;;;;;85.82;60.10;;;;;;;2.63;100.00;92599.16;5111567;28;20097;-71
2022/11/22 07:01:20;;;;;;;114.78;77.60;;;;;;;2.77;100.00;92587.41;5111625;28;20117;-71
2022/11/22 07:03:47;;;;;;;69.40;44.38;;;;;;;2.75;100.00;92590.16;5111585;28;20077;-71
2022/11/22 07:06:15;;;;;;;59.65;43.95;;;;;;;2.80;100.00;92597.22;5111815;27;20052;-70
2022/11/22 07:08:43;;;;;;;105.00;72.47;;;;;;;2.79;100.00;92588.81;5111737;28;20055;-70
2022/11/22 07:11:13;;;;;;;156.43;110.88;;;;;;;2.52;100.00;92578.38;5111583;28;20122;-70
2022/11/22 07:13:40;;;;;;;164.15;116.93;;;;;;;2.49;100.00;92576.16;5099116;28;20100;-70
2022/11/22 07:16:08;;;;;;;162.50;110.88;;;;;;;2.58;100.00;92587.00;5111531;28;20055;-70
2022/11/22 07:18:35;;;;;;;139.93;99.65;;;;;;;2.52;100.00;92580.09;5111337;28;20063;-71
2022/11/22 07:21:03;;;;;;;106.05;72.18;;;;;;;2.63;100.00;92581.41;5107005;28;20052;-70
2022/11/22 07:23:30;;;;;;;70.65;49.88;;;;;;;2.65;100.00;92575.19;5101592;28;20043;-70
2022/11/22 07:25:57;;;;;;;56.95;38.05;;;;;;;2.73;100.00;92583.69;5111350;28;20056;-70
2022/11/22 07:28:25;;;;;;;53.60;35.97;;;;;;;2.88;100.00;92576.81;5111476;28;20044;-70
2022/11/22 07:30:52;;;;;;;44.08;32.17;;;;;;;2.98;100.00;92568.13;5111040;28;20043;-70
2022/11/22 07:33:19;;;;;;;45.63;28.63;;;;;;;3.12;100.00;92557.19;5110703;28;20073;-71
2022/11/22 07:35:46;;;;;;;36.60;24.08;;;;;;;3.20;100.00;92546.91;5111270;28;20048;-71
2022/11/22 07:38:12;;;;;;;102.80;50.53;;;;;;;3.32;100.00;92544.69;5111145;28;20096;-71
2022/11/22 07:40:39;;;;;;;102.13;59.30;;;;;;;3.55;100.00;92556.38;5110976;28;20112;-70
2022/11/22 07:43:05;;;;;;;110.88;53.45;;;;;;;3.90;100.00;92568.41;5110925;28;20047;-70
2022/11/22 07:45:34;;;;;;;91.95;54.78;;;;;;;4.37;100.00;92565.34;5110502;28;20055;-71
2022/11/22 07:48:01;;;;;;;66.30;34.28;;;;;;;4.66;100.00;92569.41;5110855;28;20451;-70
2022/11/22 07:50:28;;;;;;;39.38;22.23;;;;;;;4.90;100.00;92564.00;5111073;28;20051;-71
2022/11/22 07:52:56;;;;;;;24.65;16.20;;;;;;;5.21;100.00;92583.91;5110550;28;20505;-71
2022/11/22 07:55:24;;;;;;;19.83;10.60;;;;;;;5.42;100.00;92584.72;5082034;28;20514;-71
2022/11/22 07:57:51;;;;;;;14.75;8.65;;;;;;;5.68;100.00;92573.00;5110550;28;20139;-71
2022/11/22 08:00:18;;;;;;;11.10;7.07;;;;;;;5.82;100.00;92581.44;5108728;28;20048;-71
2022/11/22 08:02:46;;;;;;;9.05;4.38;;;;;;;6.02;100.00;92585.78;5098247;28;20078;-71
2022/11/22 08:05:12;;;;;;;9.25;6.03;;;;;;;6.10;100.00;92580.47;5110773;28;20124;-71
2022/11/22 08:07:39;;;;;;;8.73;5.93;;;;;;;6.12;100.00;92593.81;5082327;28;20136;-70
2022/11/22 08:10:07;;;;;;;6.18;4.78;;;;;;;6.14;100.00;92591.88;5110709;28;20051;-70
2022/11/22 08:12:34;;;;;;;5.15;2.55;;;;;;;6.11;100.00;92589.69;5110562;28;20043;-70
2022/11/22 08:15:01;;;;;;;9.95;5.82;;;;;;;6.13;100.00;92587.75;5110184;28;20525;-70
2022/11/22 08:17:27;;;;;;;8.57;5.10;;;;;;;6.12;100.00;92575.97;5095098;28;20459;-71
2022/11/22 08:19:55;;;;;;;6.97;5.18;;;;;;;6.13;100.00;92577.56;5086432;28;20040;-70
2022/11/22 08:22:22;;;;;;;7.32;4.50;;;;;;;6.17;100.00;92577.94;5109779;28;20043;-70
2022/11/22 08:24:49;;;;;;;7.03;5.00;;;;;;;6.22;100.00;92569.69;5110270;28;20491;-70
2022/11/22 08:27:15;;;;;;;9.30;5.93;;;;;;;6.21;100.00;92566.34;5110311;28;20051;-70
2022/11/22 08:29:42;;;;;;;6.88;4.75;;;;;;;6.33;100.00;92560.63;5110158;28;20047;-71
2022/11/22 08:32:09;;;;;;;13.63;9.35;;;;;;;6.35;100.00;92553.56;5109959;28;20741;-70
2022/11/22 08:34:35;;;;;;;10.82;6.80;;;;;;;6.51;100.00;92558.25;5110039;28;20079;-70
2022/11/22 08:37:03;;;;;;;8.57;4.25;;;;;;;6.59;100.00;92551.34;5109913;28;20493;-71
2022/11/22 08:39:30;;;;;;;5.60;3.58;;;;;;;6.67;100.00;92548.59;5110024;28;20096;-70
2022/11/22 08:41:57;;;;;;;9.10;4.13;;;;;;;6.70;100.00;92547.41;5109950;28;20395;-70
2022/11/22 08:44:24;;;;;;;7.30;4.15;;;;;;;6.71;100.00;92539.53;5109980;28;20051;-71
2022/11/22 08:46:50;;;;;;;5.55;3.15;;;;;;;6.76;100.00;92549.16;5109660;28;20501;-70
2022/11/22 08:49:17;;;;;;;8.13;5.68;;;;;;;6.79;100.00;92548.72;5085822;28;20539;-70
2022/11/22 08:51:45;;;;;;;8.90;4.38;;;;;;;6.79;100.00;92546.97;5108393;28;20079;-71
2022/11/22 08:54:14;;;;;;;10.27;5.63;;;;;;;6.81;100.00;92542.44;5094323;28;20044;-71
2022/11/22 08:56:41;;;;;;;6.50;3.15;;;;;;;6.87;100.00;92540.06;5100392;28;20047;-71
2022/11/22 08:59:08;;;;;;;8.55;3.95;;;;;;;6.89;100.00;92538.09;5114204;28;20051;-71
2022/11/22 09:01:34;;;;;;;5.18;2.80;;;;;;;6.99;100.00;92548.66;5089924;28;20208;-70
2022/11/22 09:04:01;;;;;;;3.83;2.45;;;;;;;7.07;100.00;92562.94;5087701;28;20438;-70
2022/11/22 09:06:28;;;;;;;6.00;2.60;;;;;;;7.04;100.00;92551.38;5073806;28;20044;-71
2022/11/22 09:08:54;;;;;;;8.70;3.80;;;;;;;7.07;100.00;92550.97;5076174;28;20651;-71
2022/11/22 09:11:23;;;;;;;5.10;2.40;;;;;;;7.12;100.00;92552.13;5075426;28;20098;-71
2022/11/22 09:13:49;;;;;;;6.80;3.03;;;;;;;7.15;100.00;92549.16;5085324;28;20044;-71
2022/11/22 09:16:18;;;;;;;7.90;2.95;;;;;;;7.15;100.00;92547.41;5113611;28;20066;-71
2022/11/22 09:18:45;;;;;;;7.78;2.70;;;;;;;7.16;100.00;92538.75;5113363;28;20589;-70
2022/11/22 09:21:14;;;;;;;5.10;1.83;;;;;;;7.11;100.00;92540.34;5113576;28;20075;-70
2022/11/22 09:23:42;;;;;;;7.72;4.32;;;;;;;7.05;100.00;92537.59;5112434;28;20059;-71
2022/11/22 09:26:11;;;;;;;9.65;5.75;;;;;;;7.01;100.00;92551.00;5072873;28;20049;-70
2022/11/22 09:28:40;;;;;;;9.40;5.55;;;;;;;6.94;100.00;92540.81;5075943;28;20053;-71
2022/11/22 09:31:08;;;;;;;10.63;8.98;;;;;;;6.93;100.00;92532.38;5073305;28;20412;-71
2022/11/22 09:33:37;;;;;;;8.90;5.88;;;;;;;6.97;100.00;92525.09;5084150;28;20056;-71
2022/11/22 09:36:06;;;;;;;4.82;3.03;;;;;;;6.93;100.00;92526.47;5093773;28;20070;-71
2022/11/22 09:38:34;;;;;;;8.80;4.18;;;;;;;7.04;100.00;92522.50;5093439;28;20051;-70
2022/11/22 09:41:11;;;;;;;4.88;2.90;;;;;;;7.13;100.00;92521.25;5089968;28;20056;-71
2022/11/22 09:43:46;;;;;;;4.53;1.95;;;;;;;7.12;100.00;92517.16;5090848;28;20048;-71
2022/11/22 09:46:23;;;;;;;5.68;2.42;;;;;;;7.16;100.00;92514.97;5092309;28;20119;-71
2022/11/22 09:49:20;;;;;;;7.32;3.00;;;;;;;7.20;100.00;92514.38;5097499;28;20048;-71
2022/11/22 09:51:54;;;;;;;4.50;2.92;;;;;;;7.30;100.00;92498.59;5095659;28;20048;-71
2022/11/22 09:54:25;;;;;;;3.38;2.00;;;;;;;7.17;100.00;92478.25;5101206;28;20554;-71
2022/11/22 09:56:56;;;;;;;4.28;2.58;;;;;;;7.47;100.00;92487.84;5073691;28;20092;-71
2022/11/22 09:59:29;;;;;;;5.30;3.75;;;;;;;7.57;100.00;92497.59;5110364;28;20050;-71
2022/11/22 10:02:02;;;;;;;7.72;4.55;;;;;;;7.70;100.00;92489.06;5112902;28;20509;-71
2022/11/22 10:04:35;;;;;;;12.63;5.55;;;;;;;7.75;100.00;92466.19;5112710;28;20086;-71
2022/11/22 10:07:07;;;;;;;9.10;4.25;;;;;;;7.82;100.00;92478.94;5111832;28;20584;-71
2022/11/22 10:09:41;;;;;;;67.45;31.35;;;;;;;7.92;100.00;92474.09;5112945;28;20784;-71
2022/11/22 10:12:16;;;;;;;20.70;8.73;;;;;;;8.00;100.00;92470.47;5113005;28;20083;-71
2022/11/22 10:14:51;;;;;;;15.57;7.18;;;;;;;8.07;100.00;92465.31;5098854;28;20076;-70
2022/11/22 10:17:32;;;;;;;12.07;5.15;;;;;;;7.99;100.00;92451.81;5099041;28;20119;-70
2022/11/22 10:20:06;;;;;;;9.73;3.80;;;;;;;7.98;100.00;92450.25;5072500;28;20052;-70
2022/11/22 10:22:34;;;;;;;7.18;3.20;;;;;;;8.00;100.00;92447.47;5085606;28;20039;-71
2022/11/22 10:25:03;;;;;;;9.55;3.13;;;;;;;7.93;100.00;92437.31;5112860;28;20386;-71
2022/11/22 10:27:32;;;;;;;8.73;3.55;;;;;;;7.77;100.00;92400.28;5111917;28;20044;-71
2022/11/22 10:30:04;;;;;;;8.40;4.68;;;;;;;7.93;100.00;92421.19;5112159;28;20127;-71
2022/11/22 10:32:37;;;;;;;7.53;3.30;;;;;;;7.84;100.00;92413.81;5097581;28;20047;-71
2022/11/22 10:35:34;;;;;;;6.65;3.63;;;;;;;7.74;100.00;92418.63;5103900;28;20102;-71
2022/11/22 10:38:12;;;;;;;5.32;2.20;;;;;;;7.72;100.00;92418.03;5087873;28;20160;-71
2022/11/22 10:40:49;;;;;;;5.57;3.20;;;;;;;7.72;100.00;92413.72;5111213;28;20058;-71
2022/11/22 10:43:35;;;;;;;5.72;2.40;;;;;;;7.70;100.00;92412.38;5112036;28;20044;-71
2022/11/22 10:46:09;;;;;;;6.32;2.08;;;;;;;7.68;100.00;92417.69;5112011;28;20068;-70
2022/11/22 10:48:44;;;;;;;8.65;3.30;;;;;;;7.71;100.00;92412.16;5112417;28;20122;-70
2022/11/22 10:51:20;;;;;;;8.32;5.00;;;;;;;7.74;100.00;92416.84;5101156;27;20044;-70
2022/11/22 10:53:59;;;;;;;11.77;6.35;;;;;;;7.67;100.00;92415.31;5092685;28;20048;-71
2022/11/22 10:56:32;;;;;;;12.75;6.05;;;;;;;7.68;100.00;92414.34;5094945;28;20059;-70
2022/11/22 10:59:20;;;;;;;12.35;6.70;;;;;;;7.73;100.00;92417.06;5111456;28;20047;-70
2022/11/22 11:01:58;;;;;;;5.88;3.90;;;;;;;7.72;100.00;92411.16;5111879;28;20048;-70
2022/11/22 11:04:32;;;;;;;6.95;3.70;;;;;;;7.55;100.00;92390.47;5111731;28;20047;-70
2022/11/22 11:07:01;;;;;;;5.78;3.63;;;;;;;7.67;100.00;92415.31;5104591;28;20051;-71
2022/11/22 11:09:34;;;;;;;7.20;3.40;;;;;;;7.67;100.00;92405.91;5095444;28;20059;-70
2022/11/22 11:12:02;;;;;;;6.15;3.30;;;;;;;7.70;100.00;92407.25;5111691;28;20067;-71
2022/11/22 11:14:36;;;;;;;7.05;3.50;;;;;;;7.70;100.00;92405.50;5096372;28;20555;-71
2022/11/22 11:17:06;;;;;;;7.65;3.30;;;;;;;7.83;100.00;92391.78;5088592;28;20051;-70
2022/11/22 11:19:38;;;;;;;8.75;3.92;;;;;;;7.92;100.00;92388.94;5096723;28;20051;-69
2022/11/22 11:22:15;;;;;;;5.10;2.78;;;;;;;7.95;100.00;92391.84;5100979;28;20079;-70
2022/11/22 11:24:42;;;;;;;6.88;3.25;;;;;;;7.99;100.00;92399.88;5078022;28;20043;-70
2022/11/22 11:27:11;;;;;;;8.23;3.78;;;;;;;8.01;100.00;92385.13;5110054;28;20048;-70
2022/11/22 11:29:42;;;;;;;8.57;3.40;;;;;;;7.96;100.00;92390.09;5101618;28;20108;-71
2022/11/22 11:32:12;;;;;;;5.15;2.63;;;;;;;8.02;100.00;92386.66;5091432;28;20104;-71
2022/11/22 11:34:42;;;;;;;8.32;3.50;;;;;;;8.06;100.00;92392.13;5086027;28;20152;-70
2022/11/22 11:37:21;;;;;;;7.00;4.05;;;;;;;8.11;100.00;92395.59;5089192;28;20573;-71
2022/11/22 11:39:48;;;;;;;5.60;2.35;;;;;;;8.13;100.00;92393.63;5095614;28;20075;-71
2022/11/22 11:42:27;;;;;;;8.00;3.65;;;;;;;8.15;100.00;92395.97;5089345;28;20048;-71
2022/11/22 11:44:55;;;;;;;5.82;2.75;;;;;;;8.07;100.00;92379.13;5111008;27;20082;-71